createdAt,value
2022-11-30T00:01:37.409Z,78.40
2022-11-30T00:06:43.025Z,78.43
2022-11-30T00:11:46.527Z,78.40
2022-11-30T00:16:49.879Z,77.94
2022-11-30T00:21:53.294Z,78.28
2022-11-30T00:26:56.942Z,78.37
2022-11-30T00:32:00.025Z,78.12
2022-11-30T00:37:04.413Z,78.16
2022-11-30T00:42:07.800Z,78.14
2022-11-30T00:47:11.120Z,78.11
2022-11-30T00:52:14.206Z,77.93
2022-11-30T00:57:17.192Z,77.84
2022-11-30T01:02:21.910Z,78.09
2022-11-30T01:07:26.124Z,77.97
2022-11-30T01:12:29.219Z,77.87
2022-11-30T01:17:32.164Z,77.69
2022-11-30T01:22:36.193Z,77.62
2022-11-30T01:27:41.790Z,77.66
2022-11-30T01:32:45.299Z,77.85
2022-11-30T01:37:48.942Z,78.01
2022-11-30T01:42:52.468Z,78.16
2022-11-30T01:47:57.876Z,78.41
2022-11-30T01:53:03.268Z,78.10
2022-11-30T01:58:16.885Z,78.60
2022-11-30T02:03:21.411Z,78.59
2022-11-30T02:08:26.680Z,78.43
2022-11-30T02:13:30.963Z,78.30
2022-11-30T02:18:47.854Z,78.21
2022-11-30T02:24:09.440Z,78.05
2022-11-30T02:29:25.103Z,78.20
2022-11-30T02:34:33.132Z,78.30
2022-11-30T02:39:36.541Z,78.27
2022-11-30T02:44:47.809Z,78.59
2022-11-30T02:49:55.272Z,78.75
2022-11-30T02:55:11.251Z,79.07
2022-11-30T03:00:21.444Z,78.45
2022-11-30T03:05:25.239Z,78.62
2022-11-30T03:10:30.327Z,78.74
2022-11-30T03:15:34.185Z,79.15
2022-11-30T03:20:41.955Z,79.32
2022-11-30T03:25:45.427Z,79.10
2022-11-30T03:30:51.932Z,79.03
2022-11-30T03:36:07.856Z,78.94
2022-11-30T03:41:14.927Z,79.18
2022-11-30T03:46:23.211Z,79.02
2022-11-30T03:51:26.739Z,79.15
2022-11-30T03:56:30.408Z,78.77
2022-11-30T04:01:35.059Z,78.98
2022-11-30T04:06:43.341Z,79.16
2022-11-30T04:11:46.610Z,79.17
2022-11-30T04:16:50.306Z,78.64
2022-11-30T04:21:55.031Z,78.90
2022-11-30T04:26:58.294Z,79.53
2022-11-30T04:32:03.230Z,80.10
2022-11-30T04:37:06.932Z,79.54
2022-11-30T04:42:10.330Z,80.08
2022-11-30T04:47:13.813Z,79.64
2022-11-30T04:52:17.325Z,79.93
2022-11-30T04:57:20.623Z,80.30
2022-11-30T05:02:23.770Z,80.09
2022-11-30T05:07:26.709Z,79.92
2022-11-30T05:12:31.421Z,79.77
2022-11-30T05:17:35.035Z,79.69
2022-11-30T05:22:38.485Z,79.84
2022-11-30T05:27:41.831Z,79.46
2022-11-30T05:32:45.361Z,79.75
2022-11-30T05:37:48.751Z,79.04
2022-11-30T05:42:57.081Z,79.03
2022-11-30T05:48:00.530Z,79.24
2022-11-30T05:53:05.297Z,78.85
2022-11-30T05:58:08.640Z,78.25
2022-11-30T06:03:12.500Z,77.76
2022-11-30T06:08:15.792Z,78.16
2022-11-30T06:13:19.225Z,78.23
2022-11-30T06:18:22.654Z,77.92
2022-11-30T06:23:25.914Z,77.62
2022-11-30T06:28:30.559Z,77.75
2022-11-30T06:33:35.712Z,77.44
2022-11-30T06:38:39.247Z,78.05
2022-11-30T06:43:43.092Z,78.24
2022-11-30T06:48:49.245Z,77.89
2022-11-30T06:53:53.237Z,77.74
2022-11-30T06:58:56.793Z,77.57
2022-11-30T07:04:00.404Z,77.59
2022-11-30T07:09:03.735Z,77.51
2022-11-30T07:14:07.234Z,77.23
2022-11-30T07:19:10.696Z,76.86
2022-11-30T07:24:14.893Z,76.60
2022-11-30T07:29:18.561Z,76.06
2022-11-30T07:34:22.238Z,75.92
2022-11-30T07:39:25.840Z,75.83
2022-11-30T07:44:29.253Z,75.84
2022-11-30T07:49:32.609Z,75.58
2022-11-30T07:54:36.005Z,74.91
2022-11-30T07:59:39.351Z,74.67
2022-11-30T08:04:42.640Z,74.40
2022-11-30T08:09:46.173Z,74.67
2022-11-30T08:15:18.685Z,74.67
2022-11-30T08:20:13.527Z,74.86
2022-11-30T08:25:17.039Z,74.81
2022-11-30T08:30:20.448Z,74.56
2022-11-30T08:35:23.917Z,74.64
2022-11-30T08:40:27.274Z,74.56
2022-11-30T08:45:30.846Z,73.97
2022-11-30T08:50:34.157Z,73.71
2022-11-30T08:55:37.608Z,73.56
2022-11-30T09:00:40.977Z,73.64
2022-11-30T09:05:44.516Z,73.96
2022-11-30T09:10:50.345Z,73.92
2022-11-30T09:15:57.335Z,74.30
2022-11-30T09:21:02.875Z,74.35
2022-11-30T09:26:08.963Z,74.52
2022-11-30T09:31:15.352Z,74.19
2022-11-30T09:36:22.683Z,74.13
2022-11-30T09:41:35.087Z,74.03
2022-11-30T09:46:54.827Z,73.75
2022-11-30T09:52:04.790Z,73.51
2022-11-30T09:57:14.303Z,73.19
2022-11-30T10:02:18.909Z,72.62
2022-11-30T10:07:37.449Z,72.59
2022-11-30T10:13:12.799Z,72.53
2022-11-30T10:18:38.189Z,72.32
2022-11-30T10:24:21.236Z,72.09
2022-11-30T10:29:37.985Z,71.45
2022-11-30T10:34:43.479Z,71.50
2022-11-30T10:39:55.619Z,71.75
2022-11-30T10:45:15.783Z,71.27
2022-11-30T10:50:20.925Z,70.88
2022-11-30T10:55:35.052Z,71.02
2022-11-30T11:00:40.338Z,70.62
2022-11-30T11:05:43.576Z,70.60
2022-11-30T11:10:49.669Z,70.53
2022-11-30T11:16:01.074Z,70.58
2022-11-30T11:21:18.944Z,70.91
2022-11-30T11:26:26.872Z,70.53
2022-11-30T11:32:05.641Z,69.54
2022-11-30T11:37:33.251Z,69.07
2022-11-30T11:42:42.261Z,69.22
2022-11-30T11:47:46.575Z,68.89
2022-11-30T11:52:50.657Z,69.02
2022-11-30T11:57:58.507Z,68.91
2022-11-30T12:03:46.192Z,69.06
2022-11-30T12:09:22.233Z,68.95
2022-11-30T12:14:26.568Z,68.69
2022-11-30T12:19:51.972Z,68.75
2022-11-30T12:25:25.019Z,68.43
2022-11-30T12:30:46.828Z,68.65
2022-11-30T12:36:22.148Z,68.45
2022-11-30T12:41:37.513Z,67.97
2022-11-30T12:47:01.959Z,67.89
2022-11-30T12:52:36.349Z,68.21
2022-11-30T12:58:04.139Z,67.97
2022-11-30T13:03:10.394Z,67.85
2022-11-30T13:08:32.110Z,67.56
2022-11-30T13:13:37.349Z,67.55
2022-11-30T13:18:43.043Z,67.44
2022-11-30T13:23:55.729Z,67.76
2022-11-30T13:29:17.036Z,67.75
2022-11-30T13:34:29.468Z,67.83
2022-11-30T13:39:54.581Z,67.97
2022-11-30T13:45:15.947Z,68.18
2022-11-30T13:50:39.927Z,68.56
2022-11-30T13:55:43.204Z,68.70
2022-11-30T14:01:26.494Z,68.65
2022-11-30T14:06:41.806Z,68.71
2022-11-30T14:11:46.565Z,68.74
2022-11-30T14:16:50.253Z,68.46
2022-11-30T14:21:55.078Z,68.51
2022-11-30T14:26:58.935Z,68.73
2022-11-30T14:32:13.676Z,69.18
2022-11-30T14:37:26.650Z,69.53
2022-11-30T14:42:32.762Z,69.71
2022-11-30T14:47:36.484Z,69.86
2022-11-30T14:52:57.806Z,69.90
2022-11-30T14:58:14.924Z,70.02
2022-11-30T15:03:40.644Z,70.27
2022-11-30T15:08:51.888Z,70.40
2022-11-30T15:14:09.097Z,70.12
2022-11-30T15:19:33.077Z,70.58
2022-11-30T15:24:38.264Z,70.44
2022-11-30T15:29:46.860Z,70.87
2022-11-30T15:34:56.818Z,70.72
2022-11-30T15:40:02.634Z,70.76
2022-11-30T15:45:19.256Z,70.65
2022-11-30T15:50:29.345Z,71.00
2022-11-30T15:55:49.367Z,70.90
2022-11-30T16:01:06.625Z,70.93
2022-11-30T16:06:19.487Z,71.01
2022-11-30T16:11:22.979Z,71.14
2022-11-30T16:16:30.862Z,71.25
2022-11-30T16:21:36.713Z,71.45
2022-11-30T16:26:51.043Z,71.45
2022-11-30T16:31:55.454Z,71.45
2022-11-30T16:36:59.128Z,71.64
2022-11-30T16:42:02.601Z,71.42
2022-11-30T16:47:07.758Z,71.72
2022-11-30T16:52:17.319Z,71.68
2022-11-30T16:57:20.919Z,71.42
2022-11-30T17:02:24.666Z,71.82
2022-11-30T17:07:28.479Z,71.38
2022-11-30T17:12:32.307Z,71.71
2022-11-30T17:17:35.747Z,71.70
2022-11-30T17:22:39.312Z,71.56
2022-11-30T17:27:43.234Z,72.02
2022-11-30T17:32:47.391Z,71.94
2022-11-30T17:37:53.704Z,72.40
2022-11-30T17:42:58.216Z,72.02
2022-11-30T17:48:01.906Z,71.98
2022-11-30T17:53:05.367Z,71.98
2022-11-30T17:58:08.763Z,72.29
2022-11-30T18:03:11.998Z,72.16
2022-11-30T18:08:17.249Z,72.36
2022-11-30T18:13:20.714Z,72.44
2022-11-30T18:18:24.032Z,72.43
2022-11-30T18:23:27.237Z,72.39
2022-11-30T18:28:32.423Z,72.69
2022-11-30T18:33:37.233Z,72.50
2022-11-30T18:38:40.795Z,72.51
2022-11-30T18:43:46.940Z,72.47
2022-11-30T18:48:53.015Z,72.69
2022-11-30T18:53:59.879Z,72.72
2022-11-30T18:59:10.767Z,73.06
2022-11-30T19:04:14.499Z,73.35
2022-11-30T19:09:19.927Z,73.31
2022-11-30T19:14:24.495Z,73.35
2022-11-30T19:19:29.293Z,73.43
2022-11-30T19:24:32.989Z,74.05
2022-11-30T19:29:36.550Z,74.32
2022-11-30T19:34:41.473Z,74.16
2022-11-30T19:39:46.476Z,74.03
2022-11-30T19:44:51.369Z,74.63
2022-11-30T19:49:55.817Z,74.77
2022-11-30T19:55:00.298Z,74.85
2022-11-30T20:00:06.291Z,75.15
2022-11-30T20:05:20.267Z,74.93
2022-11-30T20:10:27.714Z,75.32
2022-11-30T20:15:34.177Z,75.44
2022-11-30T20:20:38.912Z,75.09
2022-11-30T20:25:42.382Z,75.44
2022-11-30T20:30:47.636Z,75.17
2022-11-30T20:35:52.254Z,75.14
2022-11-30T20:40:56.784Z,75.44
2022-11-30T20:46:00.277Z,75.19
2022-11-30T20:51:30.254Z,75.53
2022-11-30T20:56:36.439Z,75.29
2022-11-30T21:01:42.822Z,75.48
2022-11-30T21:06:46.697Z,75.34
2022-11-30T21:11:50.472Z,75.38
2022-11-30T21:16:53.813Z,75.39
2022-11-30T21:21:57.325Z,75.30
2022-11-30T21:27:00.969Z,75.24
2022-11-30T21:32:05.156Z,75.18
2022-11-30T21:37:08.571Z,75.63
2022-11-30T21:42:12.110Z,75.60
2022-11-30T21:47:15.631Z,75.25
2022-11-30T21:52:19.904Z,75.30
2022-11-30T21:57:23.601Z,75.44
2022-11-30T22:02:26.943Z,75.79
2022-11-30T22:07:30.293Z,75.61
2022-11-30T22:12:33.702Z,76.22
2022-11-30T22:17:37.239Z,76.07
2022-11-30T22:22:40.823Z,76.33
2022-11-30T22:27:44.358Z,76.01
2022-11-30T22:32:47.645Z,75.95
2022-11-30T22:37:51.028Z,76.28
2022-11-30T22:42:54.762Z,76.52
2022-11-30T22:47:58.178Z,76.53
2022-11-30T22:53:03.284Z,76.27
2022-11-30T22:58:07.581Z,76.61
2022-11-30T23:03:14.499Z,76.49
2022-11-30T23:08:21.397Z,76.70
2022-11-30T23:13:25.911Z,76.53
2022-11-30T23:18:30.689Z,76.32
2022-11-30T23:23:34.277Z,76.90
2022-11-30T23:28:37.828Z,77.02
2022-11-30T23:33:42.075Z,77.05
2022-11-30T23:38:46.892Z,76.51
2022-11-30T23:43:50.352Z,76.79
2022-11-30T23:48:53.725Z,76.85
2022-11-30T23:53:57.012Z,76.32
2022-11-30T23:59:00.334Z,76.36
